Time;durP1;ratioP1;P1;durP2;ratioP2;P2;SDS_P1;SDS_P2;PMS_P1;PMS_P2;Temp;Humidity;BMP_temperature;BMP_pressure;BME280_temperature;BME280_humidity;BME280_pressure;Samples;Min_cycle;Max_cycle;Signal;HPM_P1;HPM_P2
2024/02/02 00:00:13;;;;;;;0.20;0.20;;;;;;;;;;6260827;23;20024;-89
2024/02/02 00:02:41;;;;;;;0.20;0.20;;;;;;;;;;6268145;22;20031;-88
2024/02/02 00:05:10;;;;;;;0.20;0.20;;;;;;;;;;6268747;22;20016;-89
2024/02/02 00:07:38;;;;;;;0.20;0.20;;;;;;;;;;6262307;23;20028;-90
2024/02/02 00:10:06;;;;;;;0.30;0.30;;;;;;;;;;6259175;23;20024;-90
2024/02/02 00:12:33;;;;;;;0.10;0.10;;;;;;;;;;6256486;23;20047;-90
2024/02/02 00:15:02;;;;;;;0.13;0.13;;;;;;;;;;6256538;23;20051;-90
2024/02/02 00:17:35;;;;;;;0.10;0.10;;;;;;;;;;6260161;22;20050;-89
2024/02/02 00:20:04;;;;;;;0.10;0.10;;;;;;;;;;6255664;23;20020;-89
2024/02/02 00:22:31;;;;;;;0.13;0.13;;;;;;;;;;6267748;22;20019;-90
2024/02/02 00:24:58;;;;;;;0.20;0.20;;;;;;;;;;6267195;22;20080;-89
2024/02/02 00:27:28;;;;;;;0.10;0.10;;;;;;;;;;6253633;23;20035;-90
2024/02/02 00:29:56;;;;;;;0.30;0.30;;;;;;;;;;6263986;23;20015;-90
2024/02/02 00:32:24;;;;;;;0.20;0.20;;;;;;;;;;6254764;23;20322;-89
2024/02/02 00:34:52;;;;;;;0.20;0.20;;;;;;;;;;6252801;23;20126;-89
2024/02/02 00:37:19;;;;;;;0.10;0.10;;;;;;;;;;6252840;22;20086;-89
2024/02/02 00:39:47;;;;;;;1.20;1.20;;;;;;;;;;6251243;23;20020;-90
2024/02/02 00:42:17;;;;;;;0.20;0.20;;;;;;;;;;6252005;23;20024;-90
2024/02/02 00:44:44;;;;;;;0.10;0.10;;;;;;;;;;6253281;23;20102;-88
2024/02/02 00:47:13;;;;;;;0.20;0.20;;;;;;;;;;6251242;23;20088;-90
2024/02/02 00:49:42;;;;;;;0.10;0.10;;;;;;;;;;6250164;23;20201;-89
2024/02/02 00:52:10;;;;;;;0.10;0.10;;;;;;;;;;6250854;23;20047;-91
2024/02/02 00:54:41;;;;;;;0.10;0.10;;;;;;;;;;6252458;23;20079;-90
2024/02/02 00:57:12;;;;;;;0.20;0.20;;;;;;;;;;6255468;23;20133;-91
2024/02/02 00:59:41;;;;;;;0.10;0.10;;;;;;;;;;6250407;23;20028;-90
2024/02/02 01:02:11;;;;;;;0.10;0.10;;;;;;;;;;6250962;23;20288;-90
2024/02/02 01:04:44;;;;;;;0.10;0.10;;;;;;;;;;6250963;23;20053;-89
2024/02/02 01:07:15;;;;;;;0.10;0.10;;;;;;;;;;6251135;23;20050;-89
2024/02/02 01:09:44;;;;;;;0.95;0.40;;;;;;;;;;6251259;23;20024;-90
2024/02/02 01:12:13;;;;;;;0.20;0.20;;;;;;;;;;6251565;23;20059;-90
2024/02/02 01:14:41;;;;;;;0.10;0.10;;;;;;;;;;6251933;23;20054;-89
2024/02/02 01:17:08;;;;;;;0.10;0.10;;;;;;;;;;6257556;23;20386;-89
2024/02/02 01:19:38;;;;;;;0.10;0.10;;;;;;;;;;6266026;23;20023;-90
2024/02/02 01:22:06;;;;;;;0.40;0.40;;;;;;;;;;6255169;23;20031;-89
2024/02/02 01:24:36;;;;;;;0.10;0.10;;;;;;;;;;6254614;23;20043;-90
2024/02/02 01:27:05;;;;;;;0.10;0.10;;;;;;;;;;6253726;23;20046;-90
2024/02/02 01:29:39;;;;;;;1.25;1.17;;;;;;;;;;6253938;23;20106;-90
2024/02/02 01:32:09;;;;;;;0.10;0.10;;;;;;;;;;6254136;23;20024;-89
2024/02/02 01:34:37;;;;;;;0.20;0.20;;;;;;;;;;6254396;23;20103;-90
2024/02/02 01:37:05;;;;;;;2.15;2.05;;;;;;;;;;6251514;23;20024;-90
2024/02/02 01:39:34;;;;;;;0.15;0.15;;;;;;;;;;6255500;23;20349;-89
2024/02/02 01:42:01;;;;;;;0.15;0.15;;;;;;;;;;6257593;23;20020;-90
2024/02/02 01:44:35;;;;;;;0.77;0.77;;;;;;;;;;6258016;23;20058;-89
2024/02/02 01:47:02;;;;;;;0.10;0.10;;;;;;;;;;6255075;23;20035;-90
2024/02/02 01:49:44;;;;;;;0.10;0.10;;;;;;;;;;6258089;23;20094;-90
2024/02/02 01:52:15;;;;;;;0.10;0.10;;;;;;;;;;6254788;22;20024;-90
2024/02/02 01:54:50;;;;;;;0.20;0.20;;;;;;;;;;6262633;22;20031;-90
2024/02/02 01:57:20;;;;;;;0.55;0.55;;;;;;;;;;6268101;22;20252;-90
2024/02/02 01:59:48;;;;;;;0.10;0.10;;;;;;;;;;6288992;22;20031;-90
2024/02/02 02:02:17;;;;;;;0.10;0.10;;;;;;;;;;6261067;22;20077;-91
2024/02/02 02:04:44;;;;;;;0.10;0.10;;;;;;;;;;6261772;22;20031;-90
2024/02/02 02:07:13;;;;;;;0.20;0.20;;;;;;;;;;6257001;22;20031;-91
2024/02/02 02:09:42;;;;;;;0.10;0.10;;;;;;;;;;6259150;22;20050;-89
2024/02/02 02:12:10;;;;;;;0.10;0.10;;;;;;;;;;6258280;22;20027;-91
2024/02/02 02:14:38;;;;;;;0.75;0.75;;;;;;;;;;6262789;22;20015;-89
2024/02/02 02:17:07;;;;;;;0.10;0.10;;;;;;;;;;6287739;22;20027;-90
2024/02/02 02:19:36;;;;;;;0.10;0.10;;;;;;;;;;6284492;22;20019;-90
2024/02/02 02:22:07;;;;;;;0.22;0.22;;;;;;;;;;6259416;22;20080;-89
2024/02/02 02:24:38;;;;;;;0.28;0.28;;;;;;;;;;6263853;22;20024;-89
2024/02/02 02:27:07;;;;;;;0.10;0.10;;;;;;;;;;6268170;22;20034;-89
2024/02/02 02:29:35;;;;;;;0.20;0.20;;;;;;;;;;6261208;22;20031;-90
2024/02/02 02:32:06;;;;;;;0.17;0.17;;;;;;;;;;6260748;22;20035;-90
2024/02/02 02:34:34;;;;;;;0.95;0.57;;;;;;;;;;6259609;22;20058;-90
2024/02/02 02:37:12;;;;;;;0.20;0.20;;;;;;;;;;6263258;22;20019;-90
2024/02/02 02:39:43;;;;;;;0.10;0.10;;;;;;;;;;6271090;22;20064;-90
2024/02/02 02:42:13;;;;;;;0.20;0.20;;;;;;;;;;6274881;22;20023;-90
2024/02/02 02:45:12;;;;;;;0.20;0.20;;;;;;;;;;6262835;22;20296;-90
2024/02/02 02:47:41;;;;;;;0.10;0.10;;;;;;;;;;6283131;22;20377;-89
2024/02/02 02:50:10;;;;;;;0.10;0.10;;;;;;;;;;6255981;22;20040;-90
2024/02/02 02:52:38;;;;;;;0.10;0.10;;;;;;;;;;6254576;22;20283;-90
2024/02/02 02:55:06;;;;;;;0.10;0.10;;;;;;;;;;6254456;22;20031;-89
2024/02/02 02:57:33;;;;;;;0.10;0.10;;;;;;;;;;6261387;22;20050;-90
2024/02/02 03:00:04;;;;;;;0.10;0.10;;;;;;;;;;6253054;22;20019;-88
2024/02/02 03:02:31;;;;;;;0.70;0.70;;;;;;;;;;6253068;22;20346;-89
2024/02/02 03:04:59;;;;;;;0.20;0.20;;;;;;;;;;6254715;22;20122;-89
2024/02/02 03:07:26;;;;;;;0.17;0.17;;;;;;;;;;6256619;22;20368;-90
2024/02/02 03:09:54;;;;;;;0.10;0.10;;;;;;;;;;6257231;22;20421;-90
2024/02/02 03:12:23;;;;;;;0.10;0.10;;;;;;;;;;6256061;22;20046;-90
2024/02/02 03:14:53;;;;;;;0.30;0.30;;;;;;;;;;6256867;22;20386;-90
2024/02/02 03:17:21;;;;;;;0.17;0.17;;;;;;;;;;6257623;22;20027;-90
2024/02/02 03:19:51;;;;;;;0.15;0.15;;;;;;;;;;6287777;22;20068;-90
2024/02/02 03:22:19;;;;;;;0.43;0.43;;;;;;;;;;6264837;22;20028;-90
2024/02/02 03:24:46;;;;;;;0.20;0.20;;;;;;;;;;6257822;22;20090;-91
2024/02/02 03:27:16;;;;;;;0.20;0.20;;;;;;;;;;6256916;22;20111;-90
2024/02/02 03:29:45;;;;;;;0.10;0.10;;;;;;;;;;6257699;22;20106;-90
2024/02/02 03:32:13;;;;;;;0.10;0.10;;;;;;;;;;6261272;22;20007;-89
2024/02/02 03:34:40;;;;;;;0.90;0.40;;;;;;;;;;6262761;22;20027;-89
2024/02/02 03:37:08;;;;;;;0.13;0.13;;;;;;;;;;6264395;22;20119;-90
2024/02/02 03:39:36;;;;;;;0.20;0.20;;;;;;;;;;6269348;22;20018;-89
2024/02/02 03:42:04;;;;;;;0.28;0.28;;;;;;;;;;6274935;22;20008;-89
2024/02/02 03:44:59;;;;;;;0.10;0.10;;;;;;;;;;6267726;22;20106;-90
2024/02/02 03:47:27;;;;;;;0.17;0.17;;;;;;;;;;6285907;22;20348;-90
2024/02/02 03:49:56;;;;;;;0.30;0.30;;;;;;;;;;6255817;22;20073;-89
2024/02/02 03:52:24;;;;;;;0.20;0.20;;;;;;;;;;6255603;22;20034;-90
2024/02/02 03:54:51;;;;;;;0.15;0.15;;;;;;;;;;6255629;22;20034;-91
2024/02/02 03:57:21;;;;;;;0.10;0.10;;;;;;;;;;6248462;23;20452;-90
2024/02/02 03:59:49;;;;;;;0.10;0.10;;;;;;;;;;6251246;23;20024;-90
2024/02/02 04:02:18;;;;;;;0.17;0.17;;;;;;;;;;6253392;23;20020;-89
2024/02/02 04:04:48;;;;;;;0.20;0.20;;;;;;;;;;6254814;23;20074;-89
2024/02/02 04:07:18;;;;;;;0.28;0.28;;;;;;;;;;6256266;23;20020;-89
2024/02/02 04:09:44;;;;;;;0.30;0.30;;;;;;;;;;6259590;23;20020;-91
2024/02/02 04:12:12;;;;;;;1.05;0.95;;;;;;;;;;6253227;23;20404;-90
2024/02/02 04:14:40;;;;;;;0.20;0.20;;;;;;;;;;6253434;23;20079;-89
2024/02/02 04:17:08;;;;;;;5.68;0.43;;;;;;;;;;6253715;23;20020;-90
2024/02/02 04:19:36;;;;;;;0.20;0.20;;;;;;;;;;6252839;23;20020;-91
2024/02/02 04:22:09;;;;;;;1.23;0.17;;;;;;;;;;6256497;23;20020;-90
2024/02/02 04:24:38;;;;;;;0.10;0.10;;;;;;;;;;6260469;23;20020;-92
2024/02/02 04:27:06;;;;;;;2.28;0.68;;;;;;;;;;6251955;22;20406;-92
2024/02/02 04:29:33;;;;;;;0.30;0.30;;;;;;;;;;6250110;23;20141;-92
2024/02/02 04:32:05;;;;;;;0.20;0.20;;;;;;;;;;6249387;23;20032;-92
2024/02/02 04:34:34;;;;;;;0.10;0.10;;;;;;;;;;6250498;23;20024;-91
2024/02/02 04:37:04;;;;;;;0.20;0.20;;;;;;;;;;6249628;23;20495;-90
2024/02/02 04:46:26;;;;;;;;;;;;;;;;;;6249827;22;20162;-94
2024/02/02 04:59:40;;;;;;;0.10;0.10;;;;;;;;;;6250726;23;20074;-92
2024/02/02 05:02:07;;;;;;;0.13;0.13;;;;;;;;;;6225462;23;20024;-92
2024/02/02 05:04:38;;;;;;;0.10;0.10;;;;;;;;;;6228359;23;20046;-92
2024/02/02 05:07:05;;;;;;;0.10;0.10;;;;;;;;;;6230128;23;20048;-92
2024/02/02 05:09:32;;;;;;;0.20;0.20;;;;;;;;;;6230604;23;20028;-92
2024/02/02 05:11:59;;;;;;;1.58;1.48;;;;;;;;;;6225168;23;20333;-92
2024/02/02 05:14:27;;;;;;;0.10;0.10;;;;;;;;;;6222819;23;20020;-92
2024/02/02 05:16:54;;;;;;;0.10;0.10;;;;;;;;;;6252671;23;20020;-92
2024/02/02 05:24:32;;;;;;;0.20;0.20;;;;;;;;;;6244726;22;20730;-92
2024/02/02 05:27:12;;;;;;;0.60;0.60;;;;;;;;;;6255684;23;20028;-93
2024/02/02 05:29:44;;;;;;;0.10;0.10;;;;;;;;;;6227913;23;20024;-92
2024/02/02 05:32:12;;;;;;;0.10;0.10;;;;;;;;;;6230015;23;20195;-92
2024/02/02 05:35:09;;;;;;;0.17;0.17;;;;;;;;;;6236764;23;20024;-93
2024/02/02 05:37:37;;;;;;;0.20;0.20;;;;;;;;;;6224915;23;20027;-91
2024/02/02 05:40:08;;;;;;;1.55;0.40;;;;;;;;;;6227698;23;20035;-90
2024/02/02 05:42:36;;;;;;;0.35;0.35;;;;;;;;;;6230830;23;20275;-91
2024/02/02 05:45:04;;;;;;;0.57;0.52;;;;;;;;;;6225870;23;20079;-92
2024/02/02 05:50:58;;;;;;;1.65;0.57;;;;;;;;;;6251187;23;20028;-93
2024/02/02 05:53:27;;;;;;;0.68;0.20;;;;;;;;;;6225411;23;20467;-91
2024/02/02 05:55:57;;;;;;;0.85;0.68;;;;;;;;;;6252989;23;20035;-91
2024/02/02 05:58:41;;;;;;;1.00;0.88;;;;;;;;;;6199741;23;20115;-92
2024/02/02 06:01:09;;;;;;;0.10;0.10;;;;;;;;;;6252538;23;20454;-92
2024/02/02 06:03:36;;;;;;;0.25;0.25;;;;;;;;;;6225224;23;20107;-91
2024/02/02 06:06:04;;;;;;;0.20;0.20;;;;;;;;;;6226170;23;20468;-92
2024/02/02 06:08:32;;;;;;;0.50;0.50;;;;;;;;;;6229424;23;20107;-92
2024/02/02 06:11:03;;;;;;;0.17;0.17;;;;;;;;;;6263006;22;20019;-91
2024/02/02 06:13:30;;;;;;;0.20;0.20;;;;;;;;;;6256533;23;20024;-91
2024/02/02 06:16:40;;;;;;;0.20;0.20;;;;;;;;;;6228793;23;20024;-90
2024/02/02 06:19:07;;;;;;;2.53;1.17;;;;;;;;;;6172029;23;20071;-92
2024/02/02 06:21:36;;;;;;;0.10;0.10;;;;;;;;;;6226061;23;20426;-91
2024/02/02 06:24:07;;;;;;;0.63;0.52;;;;;;;;;;6220273;23;20031;-92
2024/02/02 06:26:36;;;;;;;2.92;1.75;;;;;;;;;;6219876;23;20024;-92
2024/02/02 06:29:04;;;;;;;0.10;0.10;;;;;;;;;;6222383;23;20028;-92
2024/02/02 06:31:31;;;;;;;0.10;0.10;;;;;;;;;;6221638;23;20068;-91
2024/02/02 06:33:59;;;;;;;1.05;0.30;;;;;;;;;;6219268;23;20020;-92
2024/02/02 06:36:28;;;;;;;0.10;0.10;;;;;;;;;;6221009;23;20076;-91
2024/02/02 06:38:56;;;;;;;3.42;1.42;;;;;;;;;;6221889;23;20035;-92
2024/02/02 06:41:23;;;;;;;1.40;1.20;;;;;;;;;;6221691;23;20315;-92
2024/02/02 06:43:53;;;;;;;0.68;0.63;;;;;;;;;;6223627;23;20163;-91
2024/02/02 06:46:21;;;;;;;0.82;0.82;;;;;;;;;;6224668;23;20028;-91
2024/02/02 06:48:51;;;;;;;1.27;1.17;;;;;;;;;;6227466;23;20043;-92
2024/02/02 06:51:20;;;;;;;0.10;0.10;;;;;;;;;;6223434;23;20046;-92
2024/02/02 06:53:49;;;;;;;0.77;0.77;;;;;;;;;;6223075;23;20104;-91
2024/02/02 06:56:38;;;;;;;0.28;0.28;;;;;;;;;;6228931;23;20034;-92
2024/02/02 06:59:11;;;;;;;0.10;0.10;;;;;;;;;;6236285;23;20013;-91
2024/02/02 07:01:39;;;;;;;0.40;0.40;;;;;;;;;;6232390;23;20024;-92
2024/02/02 07:04:13;;;;;;;0.10;0.10;;;;;;;;;;6227258;23;20293;-93
2024/02/02 07:06:45;;;;;;;0.82;0.82;;;;;;;;;;6237655;23;20076;-92
2024/02/02 07:09:21;;;;;;;2.03;1.92;;;;;;;;;;6232408;23;20021;-91
2024/02/02 07:11:49;;;;;;;0.20;0.20;;;;;;;;;;6224272;23;20031;-90
2024/02/02 07:14:50;;;;;;;0.25;0.25;;;;;;;;;;6225510;23;20028;-91
2024/02/02 07:17:17;;;;;;;1.08;1.08;;;;;;;;;;6226737;23;20040;-91
2024/02/02 07:19:46;;;;;;;0.50;0.50;;;;;;;;;;6222063;23;20031;-92
2024/02/02 07:22:36;;;;;;;0.20;0.20;;;;;;;;;;6230430;23;20029;-92
2024/02/02 07:25:21;;;;;;;0.10;0.10;;;;;;;;;;6230063;23;20059;-93
2024/02/02 07:27:49;;;;;;;0.57;0.45;;;;;;;;;;6230609;23;20032;-92
2024/02/02 07:30:26;;;;;;;0.63;0.63;;;;;;;;;;6227210;23;20028;-91
2024/02/02 07:32:53;;;;;;;0.20;0.20;;;;;;;;;;6251572;23;20070;-91
2024/02/02 07:35:27;;;;;;;0.40;0.40;;;;;;;;;;6253329;23;20054;-91
2024/02/02 07:37:55;;;;;;;0.10;0.10;;;;;;;;;;6239010;23;20032;-91
2024/02/02 07:40:40;;;;;;;0.73;0.68;;;;;;;;;;6254420;23;20027;-92
2024/02/02 07:43:08;;;;;;;0.10;0.10;;;;;;;;;;6225843;23;20309;-90
2024/02/02 07:45:35;;;;;;;0.20;0.20;;;;;;;;;;6225055;23;20028;-92
2024/02/02 07:48:04;;;;;;;2.75;0.60;;;;;;;;;;6222492;23;20268;-91
2024/02/02 07:50:35;;;;;;;0.60;0.60;;;;;;;;;;6251740;23;20028;-92
2024/02/02 07:53:02;;;;;;;3.72;1.20;;;;;;;;;;6253180;23;20055;-91
2024/02/02 07:55:30;;;;;;;2.83;0.55;;;;;;;;;;6265789;22;20032;-90
2024/02/02 07:58:00;;;;;;;0.80;0.63;;;;;;;;;;6240731;22;20261;-91
2024/02/02 08:00:30;;;;;;;0.32;0.30;;;;;;;;;;6233154;23;20049;-92
2024/02/02 08:02:58;;;;;;;85.30;2.72;;;;;;;;;;6222392;23;20047;-92
2024/02/02 08:05:27;;;;;;;2.08;0.65;;;;;;;;;;6228136;23;20024;-92
2024/02/02 08:07:55;;;;;;;0.00;0.00;;;;;;;;;;6222633;23;20063;-92
2024/02/02 08:10:22;;;;;;;2.40;0.95;;;;;;;;;;6251021;23;20031;-92
2024/02/02 08:12:50;;;;;;;0.17;0.17;;;;;;;;;;6222584;23;20058;-93
2024/02/02 08:15:17;;;;;;;0.45;0.40;;;;;;;;;;6226569;23;20024;-92
2024/02/02 08:17:45;;;;;;;0.10;0.10;;;;;;;;;;6225497;23;20031;-92
2024/02/02 08:20:13;;;;;;;0.70;0.57;;;;;;;;;;6254180;23;20024;-91
2024/02/02 08:22:43;;;;;;;1.17;1.08;;;;;;;;;;6225229;23;20020;-92
2024/02/02 08:25:12;;;;;;;0.60;0.60;;;;;;;;;;6249560;23;20042;-92
2024/02/02 08:27:40;;;;;;;0.50;0.50;;;;;;;;;;6250425;23;20028;-91
2024/02/02 08:30:11;;;;;;;0.15;0.15;;;;;;;;;;6224107;23;20050;-92
2024/02/02 08:32:39;;;;;;;0.30;0.30;;;;;;;;;;6224261;23;20634;-92
2024/02/02 08:35:13;;;;;;;1.55;1.20;;;;;;;;;;6224985;23;20325;-92
2024/02/02 08:37:56;;;;;;;0.22;0.22;;;;;;;;;;6229545;23;20024;-92
2024/02/02 08:40:40;;;;;;;5.03;1.20;;;;;;;;;;6225762;23;20298;-91
2024/02/02 08:43:20;;;;;;;0.17;0.17;;;;;;;;;;6250008;23;20077;-92
2024/02/02 08:46:04;;;;;;;0.50;0.47;;;;;;;;;;6251432;23;20270;-92
2024/02/02 08:48:49;;;;;;;4.00;3.70;;;;;;;;;;6225640;23;20084;-91
2024/02/02 08:51:23;;;;;;;2.33;1.40;;;;;;;;;;6222991;23;20034;-91
2024/02/02 08:54:10;;;;;;;3.97;2.28;;;;;;;;;;6223860;23;20020;-93
2024/02/02 08:59:52;;;;;;;1.20;0.98;;;;;;;;;;6252361;23;20028;-92
2024/02/02 16:03:35;;;;;;;0.47;0.47;;;;;;;;;;6241425;22;20008;-91
2024/02/02 16:06:05;;;;;;;0.40;0.40;;;;;;;;;;6266869;22;20042;-90
2024/02/02 16:08:34;;;;;;;0.70;0.70;;;;;;;;;;6266939;22;20012;-92
2024/02/02 16:11:07;;;;;;;0.20;0.20;;;;;;;;;;6266736;22;20031;-91
2024/02/02 16:13:36;;;;;;;0.08;0.08;;;;;;;;;;6261980;22;20018;-91
2024/02/02 16:16:05;;;;;;;0.17;0.17;;;;;;;;;;6252833;23;20028;-91
2024/02/02 16:18:35;;;;;;;0.43;0.43;;;;;;;;;;6251188;23;20051;-91
2024/02/02 16:21:15;;;;;;;0.20;0.20;;;;;;;;;;6251715;23;20020;-91
2024/02/02 16:23:49;;;;;;;0.22;0.22;;;;;;;;;;6261159;23;20136;-91
2024/02/02 16:26:20;;;;;;;0.10;0.10;;;;;;;;;;6253390;23;20078;-91
2024/02/02 16:28:52;;;;;;;0.10;0.10;;;;;;;;;;6255581;23;20089;-91
2024/02/02 16:31:33;;;;;;;0.20;0.20;;;;;;;;;;6256097;23;20027;-91
2024/02/02 16:34:15;;;;;;;0.28;0.28;;;;;;;;;;6258528;23;20035;-91
2024/02/02 16:36:46;;;;;;;0.03;0.03;;;;;;;;;;6253079;22;20398;-92
2024/02/02 16:39:28;;;;;;;4.68;1.30;;;;;;;;;;6250434;23;20122;-91
2024/02/02 16:42:06;;;;;;;0.30;0.30;;;;;;;;;;6251684;23;20076;-91
2024/02/02 16:44:36;;;;;;;0.10;0.10;;;;;;;;;;6251507;23;20279;-91
2024/02/02 16:47:04;;;;;;;0.85;0.85;;;;;;;;;;6252468;23;20023;-91
2024/02/02 16:49:36;;;;;;;0.10;0.10;;;;;;;;;;6254156;23;20054;-92
2024/02/02 16:52:06;;;;;;;0.10;0.10;;;;;;;;;;6262844;22;20020;-92
2024/02/02 16:54:42;;;;;;;0.30;0.25;;;;;;;;;;6267319;22;20092;-91
2024/02/02 16:57:24;;;;;;;0.10;0.10;;;;;;;;;;6257600;23;20027;-92
2024/02/02 17:00:09;;;;;;;0.68;0.55;;;;;;;;;;6254207;23;20313;-91
2024/02/02 17:03:03;;;;;;;1.67;1.35;;;;;;;;;;6253990;23;20042;-93
2024/02/02 17:05:41;;;;;;;;;;;;;;;;;;6256440;23;20031;-92
2024/02/02 17:08:28;;;;;;;0.90;0.70;;;;;;;;;;6255170;22;20281;-91
2024/02/02 17:11:08;;;;;;;0.10;0.10;;;;;;;;;;6259288;23;20012;-91
2024/02/02 17:13:37;;;;;;;0.50;0.50;;;;;;;;;;6248881;23;20302;-92
2024/02/02 17:16:07;;;;;;;0.17;0.10;;;;;;;;;;6248528;23;20446;-92
2024/02/02 17:18:35;;;;;;;0.43;0.43;;;;;;;;;;6249438;23;20028;-92
2024/02/02 17:21:11;;;;;;;1.20;1.10;;;;;;;;;;6249196;22;20024;-91
2024/02/02 17:23:41;;;;;;;0.00;0.00;;;;;;;;;;6251803;23;20374;-92
2024/02/02 17:29:18;;;;;;;0.45;0.22;;;;;;;;;;6249047;23;20028;-92
2024/02/02 17:31:51;;;;;;;0.82;0.82;;;;;;;;;;6249783;23;20398;-91
2024/02/02 17:34:19;;;;;;;0.10;0.10;;;;;;;;;;6252320;23;20465;-93
2024/02/02 17:36:47;;;;;;;1.50;0.63;;;;;;;;;;6261366;23;20076;-92
2024/02/02 17:39:15;;;;;;;1.15;0.98;;;;;;;;;;6266105;22;20008;-92
2024/02/02 17:41:44;;;;;;;1.17;0.88;;;;;;;;;;6267032;22;20012;-91
2024/02/02 17:44:14;;;;;;;0.30;0.22;;;;;;;;;;6251437;23;20024;-92
2024/02/02 17:46:50;;;;;;;0.00;0.00;;;;;;;;;;6250422;23;20024;-92
2024/02/02 17:49:24;;;;;;;7.47;0.90;;;;;;;;;;6249809;23;20103;-91
2024/02/02 17:51:57;;;;;;;0.05;0.05;;;;;;;;;;6251077;23;20016;-91
2024/02/02 17:54:34;;;;;;;0.00;0.00;;;;;;;;;;6251789;23;20227;-92
2024/02/02 17:57:10;;;;;;;0.32;0.32;;;;;;;;;;6253128;22;20020;-93
2024/02/02 18:02:28;;;;;;;0.08;0.08;;;;;;;;;;6253501;22;20318;-91
2024/02/02 18:04:57;;;;;;;0.10;0.10;;;;;;;;;;6257277;23;20313;-91
2024/02/02 18:11:10;;;;;;;;;;;;;;;;;;;;;
2024/02/02 18:14:13;;;;;;;0.30;0.30;;;;;;;;;;6262874;22;20028;-92
2024/02/02 18:16:45;;;;;;;1.55;1.38;;;;;;;;;;6257477;23;20024;-94
2024/02/02 18:19:17;;;;;;;0.08;0.08;;;;;;;;;;6236148;23;20080;-93
2024/02/02 18:21:52;;;;;;;0.10;0.10;;;;;;;;;;6232286;23;20111;-92
2024/02/02 18:24:21;;;;;;;0.10;0.10;;;;;;;;;;6230510;23;20090;-92
2024/02/02 18:26:54;;;;;;;6.28;1.13;;;;;;;;;;6230293;23;20047;-92
2024/02/02 18:29:30;;;;;;;0.10;0.10;;;;;;;;;;6255262;23;20020;-92
2024/02/02 18:32:13;;;;;;;0.75;0.75;;;;;;;;;;6221513;23;20024;-91
2024/02/02 18:34:42;;;;;;;0.40;0.40;;;;;;;;;;6252669;23;20020;-92
2024/02/02 18:37:15;;;;;;;0.50;0.50;;;;;;;;;;6228270;23;20020;-92
2024/02/02 18:39:42;;;;;;;0.38;0.38;;;;;;;;;;6227981;23;20024;-91
2024/02/02 18:42:38;;;;;;;3.30;1.85;;;;;;;;;;6260690;23;20074;-92
2024/02/02 18:50:35;;;;;;;0.00;0.00;;;;;;;;;;6235565;22;20031;-92
2024/02/02 18:53:07;;;;;;;0.10;0.10;;;;;;;;;;6254434;23;20020;-92
2024/02/02 18:55:36;;;;;;;3.42;1.55;;;;;;;;;;6252758;23;20024;-92
2024/02/02 18:58:04;;;;;;;1.63;1.52;;;;;;;;;;6227861;23;20075;-91
2024/02/02 19:03:07;;;;;;;0.27;0.27;;;;;;;;;;6225144;22;20017;-91
2024/02/02 19:09:22;;;;;;;0.30;0.30;;;;;;;;;;6232885;23;20035;-91
2024/02/02 19:11:51;;;;;;;3.17;1.63;;;;;;;;;;6228553;23;20375;-91
2024/02/02 19:14:32;;;;;;;9.68;3.15;;;;;;;;;;6205073;23;20035;-91
2024/02/02 19:17:02;;;;;;;0.10;0.10;;;;;;;;;;6205763;23;20084;-91
2024/02/02 19:19:30;;;;;;;4.90;2.05;;;;;;;;;;6191800;23;20103;-90
2024/02/02 19:21:59;;;;;;;2.03;1.88;;;;;;;;;;6193884;23;20297;-90
2024/02/02 19:24:30;;;;;;;0.22;0.22;;;;;;;;;;6193865;23;20265;-91
2024/02/02 19:26:59;;;;;;;0.40;0.40;;;;;;;;;;6218134;23;20055;-90
2024/02/02 19:29:34;;;;;;;0.15;0.15;;;;;;;;;;6220051;23;20052;-90
2024/02/02 19:32:05;;;;;;;0.85;0.45;;;;;;;;;;6195257;23;20436;-91
2024/02/02 19:34:34;;;;;;;0.00;0.00;;;;;;;;;;6203131;23;20019;-90
2024/02/02 19:37:03;;;;;;;1.05;0.47;;;;;;;;;;6234878;22;20013;-92
2024/02/02 19:39:30;;;;;;;0.00;0.00;;;;;;;;;;6213166;23;20012;-92
2024/02/02 19:42:02;;;;;;;3.15;2.05;;;;;;;;;;6237801;22;20012;-92
2024/02/02 19:44:30;;;;;;;2.50;1.83;;;;;;;;;;6212210;23;20014;-93
2024/02/02 19:46:58;;;;;;;4.50;2.42;;;;;;;;;;6238748;23;20068;-91
2024/02/02 19:49:26;;;;;;;0.05;0.05;;;;;;;;;;6238668;22;20128;-92
2024/02/02 19:51:54;;;;;;;2.38;1.60;;;;;;;;;;6209523;23;20082;-92
2024/02/02 19:54:25;;;;;;;0.30;0.30;;;;;;;;;;6223699;23;20078;-92
2024/02/02 19:57:13;;;;;;;3.25;2.42;;;;;;;;;;6199649;23;20035;-91
2024/02/02 19:59:43;;;;;;;1.95;1.75;;;;;;;;;;6198533;23;20029;-93
2024/02/02 20:02:14;;;;;;;1.70;1.55;;;;;;;;;;6198981;23;20358;-92
2024/02/02 20:04:44;;;;;;;0.20;0.20;;;;;;;;;;6225851;23;20032;-91
2024/02/02 20:07:12;;;;;;;0.38;0.30;;;;;;;;;;6202039;23;20020;-92
2024/02/02 20:09:40;;;;;;;1.27;1.17;;;;;;;;;;6200214;23;20021;-93
2024/02/02 20:12:08;;;;;;;0.25;0.25;;;;;;;;;;6225901;23;20028;-93
2024/02/02 20:14:38;;;;;;;0.60;0.60;;;;;;;;;;6226929;23;20020;-92
2024/02/02 20:17:07;;;;;;;2.25;1.15;;;;;;;;;;6232361;23;20016;-92
2024/02/02 20:19:44;;;;;;;0.30;0.25;;;;;;;;;;6212958;23;20068;-93
2024/02/02 20:22:14;;;;;;;3.92;2.08;;;;;;;;;;6207210;23;20029;-93
2024/02/02 20:24:56;;;;;;;4.38;1.58;;;;;;;;;;6207119;23;20028;-93
2024/02/02 20:27:25;;;;;;;1.27;1.17;;;;;;;;;;6202036;23;20025;-92
2024/02/02 20:29:52;;;;;;;0.90;0.90;;;;;;;;;;6206892;23;20047;-92
2024/02/02 20:32:25;;;;;;;1.65;1.25;;;;;;;;;;6198711;23;20021;-93
2024/02/02 20:34:53;;;;;;;1.90;1.80;;;;;;;;;;6201863;23;20020;-91
2024/02/02 20:37:22;;;;;;;7.80;2.88;;;;;;;;;;6224891;23;20027;-92
2024/02/02 20:39:50;;;;;;;0.63;0.40;;;;;;;;;;6225089;23;20016;-91
2024/02/02 20:42:20;;;;;;;0.15;0.15;;;;;;;;;;6232610;23;20024;-92
2024/02/02 20:44:49;;;;;;;0.60;0.60;;;;;;;;;;6237523;22;20063;-91
2024/02/02 20:47:18;;;;;;;3.47;2.00;;;;;;;;;;6231957;23;20194;-93
2024/02/02 20:49:46;;;;;;;1.45;1.35;;;;;;;;;;6204884;23;20060;-92
2024/02/02 20:52:16;;;;;;;5.90;1.35;;;;;;;;;;6204077;23;20084;-93
2024/02/02 20:54:43;;;;;;;4.75;2.95;;;;;;;;;;6202954;23;20082;-93
2024/02/02 20:57:13;;;;;;;15.45;1.42;;;;;;;;;;6200041;23;20046;-93
2024/02/02 20:59:43;;;;;;;2.22;0.55;;;;;;;;;;6201841;23;20088;-92
2024/02/02 21:02:11;;;;;;;0.10;0.10;;;;;;;;;;6227179;23;20115;-92
2024/02/02 21:04:41;;;;;;;8.90;2.88;;;;;;;;;;6225891;23;20025;-94
2024/02/02 21:07:15;;;;;;;4.63;1.38;;;;;;;;;;6226961;23;20024;-93
2024/02/02 21:09:45;;;;;;;8.00;1.08;;;;;;;;;;6202581;23;20020;-93
2024/02/02 21:12:13;;;;;;;9.25;1.85;;;;;;;;;;6206166;23;20016;-93
2024/02/02 21:14:55;;;;;;;0.30;0.30;;;;;;;;;;6240159;23;20021;-92
2024/02/02 21:17:24;;;;;;;0.10;0.10;;;;;;;;;;6211718;23;20124;-92
2024/02/02 21:19:58;;;;;;;0.82;0.63;;;;;;;;;;6213105;23;20009;-91
2024/02/02 21:22:27;;;;;;;0.25;0.25;;;;;;;;;;6237281;23;20041;-92
2024/02/02 21:24:55;;;;;;;0.75;0.75;;;;;;;;;;6214017;23;20064;-89
2024/02/02 21:27:37;;;;;;;2.47;1.48;;;;;;;;;;6239549;23;20035;-92
2024/02/02 21:30:09;;;;;;;5.97;2.13;;;;;;;;;;6214718;23;20032;-92
2024/02/02 21:32:38;;;;;;;0.00;0.00;;;;;;;;;;6238063;23;20064;-92
2024/02/02 21:35:12;;;;;;;2.28;1.98;;;;;;;;;;6208070;23;20024;-92
2024/02/02 21:37:40;;;;;;;0.20;0.20;;;;;;;;;;6234051;23;20025;-92
2024/02/02 21:40:11;;;;;;;2.38;1.25;;;;;;;;;;6232650;23;20020;-93
2024/02/02 21:42:39;;;;;;;0.73;0.73;;;;;;;;;;6228860;23;20021;-92
2024/02/02 21:45:10;;;;;;;0.15;0.15;;;;;;;;;;6226691;23;20083;-92
2024/02/02 21:47:38;;;;;;;1.45;0.22;;;;;;;;;;6230403;23;20025;-92
2024/02/02 21:50:07;;;;;;;1.05;1.05;;;;;;;;;;6206034;23;20031;-92
2024/02/02 21:52:39;;;;;;;0.30;0.30;;;;;;;;;;6205078;23;20008;-92
2024/02/02 21:55:11;;;;;;;1.65;1.40;;;;;;;;;;6237837;23;20150;-92
2024/02/02 21:57:48;;;;;;;0.47;0.45;;;;;;;;;;6208151;23;20025;-89
2024/02/02 22:00:23;;;;;;;1.05;0.60;;;;;;;;;;6228778;23;20020;-89
2024/02/02 22:06:04;;;;;;;3.30;1.33;;;;;;;;;;6284280;22;20019;-88
2024/02/02 22:09:08;;;;;;;;;;;;;;;;;;;;;
2024/02/02 22:14:33;;;;;;;1.23;0.80;;;;;;;;;;6258523;23;20089;-89
2024/02/02 22:17:09;;;;;;;0.73;0.63;;;;;;;;;;6259182;23;20020;-89
2024/02/02 22:20:23;;;;;;;0.60;0.60;;;;;;;;;;6186985;23;20040;-89
2024/02/02 22:23:06;;;;;;;1.00;1.00;;;;;;;;;;6077994;23;20093;-89
2024/02/02 22:26:12;;;;;;;3.60;1.95;;;;;;;;;;6126621;23;20080;-90
2024/02/02 22:39:34;;;;;;;1.20;1.13;;;;;;;;;;6253327;22;20075;-90
2024/02/02 22:42:04;;;;;;;1.05;1.00;;;;;;;;;;6274043;22;20039;-91
2024/02/02 22:44:35;;;;;;;3.45;1.17;;;;;;;;;;6276834;22;20024;-88
2024/02/02 22:47:16;;;;;;;0.65;0.55;;;;;;;;;;6278072;22;20024;-89
2024/02/02 22:53:27;;;;;;;2.83;1.85;;;;;;;;;;6261365;22;20008;-88
2024/02/02 22:56:10;;;;;;;0.10;0.10;;;;;;;;;;6301702;22;20014;-89
2024/02/02 22:58:51;;;;;;;1.10;0.77;;;;;;;;;;6266779;22;20087;-90
2024/02/02 23:01:28;;;;;;;2.63;1.08;;;;;;;;;;6287008;22;20050;-90
2024/02/02 23:04:47;;;;;;;1.40;0.93;;;;;;;;;;6186585;23;20076;-91
2024/02/02 23:07:15;;;;;;;2.50;2.30;;;;;;;;;;6197733;23;20024;-89
2024/02/02 23:16:42;;;;;;;2.17;1.42;;;;;;;;;;6172574;23;20009;-89
2024/02/02 23:19:22;;;;;;;0.68;0.40;;;;;;;;;;6194172;23;20016;-89
2024/02/02 23:21:55;;;;;;;2.83;0.68;;;;;;;;;;6202642;23;20024;-88
2024/02/02 23:24:30;;;;;;;0.77;0.55;;;;;;;;;;6206045;23;20069;-90
2024/02/02 23:27:12;;;;;;;0.65;0.65;;;;;;;;;;6206318;23;20017;-90
2024/02/02 23:30:06;;;;;;;0.75;0.75;;;;;;;;;;6255605;22;20019;-91
2024/02/02 23:32:36;;;;;;;0.20;0.17;;;;;;;;;;6275126;22;20008;-90